createdAt,value
2022-10-19T00:01:53.611Z,17.70
2022-10-19T00:04:25.477Z,17.60
2022-10-19T00:06:57.432Z,17.50
2022-10-19T00:09:30.586Z,17.40
2022-10-19T00:12:02.417Z,17.40
2022-10-19T00:14:34.336Z,17.40
2022-10-19T00:17:06.142Z,17.30
2022-10-19T00:19:37.898Z,17.30
2022-10-19T00:22:13.038Z,17.20
2022-10-19T00:24:47.305Z,17.20
2022-10-19T00:27:19.148Z,17.20
2022-10-19T00:29:50.936Z,17.20
2022-10-19T00:32:22.930Z,17.10
2022-10-19T00:34:54.702Z,17.10
2022-10-19T00:37:26.849Z,17.10
2022-10-19T00:40:00.053Z,17.10
2022-10-19T00:42:32.015Z,17.20
2022-10-19T00:45:09.478Z,17.20
2022-10-19T00:47:42.243Z,17.20
2022-10-19T00:50:15.408Z,17.20
2022-10-19T00:52:47.317Z,17.20
2022-10-19T00:55:20.766Z,17.20
2022-10-19T00:57:52.681Z,17.10
2022-10-19T01:00:24.490Z,17.20
2022-10-19T01:02:57.273Z,17.20
2022-10-19T01:05:30.020Z,17.20
2022-10-19T01:08:01.974Z,17.20
2022-10-19T01:10:46.047Z,17.20
2022-10-19T01:13:28.755Z,17.20
2022-10-19T01:16:06.477Z,17.20
2022-10-19T01:18:45.657Z,17.20
2022-10-19T01:21:26.227Z,17.20
2022-10-19T01:24:43.480Z,17.20
2022-10-19T01:27:35.330Z,17.20
2022-10-19T01:30:28.655Z,17.20
2022-10-19T01:33:13.459Z,17.20
2022-10-19T01:35:53.575Z,17.30
2022-10-19T01:38:34.151Z,17.20
2022-10-19T01:41:14.444Z,17.20
2022-10-19T01:43:53.720Z,17.20
2022-10-19T01:46:30.370Z,17.20
2022-10-19T01:49:08.778Z,17.20
2022-10-19T01:51:43.739Z,17.20
2022-10-19T01:54:18.533Z,17.20
2022-10-19T01:56:52.115Z,17.20
2022-10-19T01:59:23.976Z,17.20
2022-10-19T02:01:57.947Z,17.20
2022-10-19T02:04:30.980Z,17.20
2022-10-19T02:07:04.024Z,17.20
2022-10-19T02:09:36.049Z,17.10
2022-10-19T02:12:11.128Z,17.10
2022-10-19T02:14:46.242Z,17.10
2022-10-19T02:17:24.059Z,17.10
2022-10-19T02:19:56.908Z,17.10
2022-10-19T02:22:29.121Z,17.00
2022-10-19T02:25:00.980Z,17.00
2022-10-19T02:27:33.350Z,17.00
2022-10-19T02:30:06.728Z,17.10
2022-10-19T02:32:39.782Z,17.00
2022-10-19T02:35:12.671Z,17.00
2022-10-19T02:37:44.872Z,17.00
2022-10-19T02:40:16.794Z,17.00
2022-10-19T02:42:52.323Z,17.00
2022-10-19T02:45:28.251Z,17.00
2022-10-19T02:48:05.326Z,16.90
2022-10-19T02:50:37.707Z,17.00
2022-10-19T02:53:09.535Z,17.00
2022-10-19T02:55:41.852Z,17.00
2022-10-19T02:58:13.688Z,16.90
2022-10-19T03:00:45.533Z,17.00
2022-10-19T03:03:18.677Z,17.00
2022-10-19T03:05:50.493Z,16.90
2022-10-19T03:08:22.368Z,16.90
2022-10-19T03:10:54.134Z,16.90
2022-10-19T03:13:25.880Z,16.90
2022-10-19T03:15:57.708Z,16.90
2022-10-19T03:18:30.808Z,16.90
2022-10-19T03:21:04.131Z,16.90
2022-10-19T03:23:36.252Z,16.90
2022-10-19T03:26:12.418Z,16.90
2022-10-19T03:28:44.497Z,16.90
2022-10-19T03:31:16.568Z,16.90
2022-10-19T03:33:50.429Z,16.90
2022-10-19T03:36:24.928Z,16.90
2022-10-19T03:38:58.565Z,16.80
2022-10-19T03:41:33.674Z,16.80
2022-10-19T03:44:06.546Z,16.80
2022-10-19T03:46:39.001Z,16.90
2022-10-19T03:49:12.347Z,16.90
2022-10-19T03:51:44.001Z,16.90
2022-10-19T03:54:16.618Z,16.80
2022-10-19T03:56:48.460Z,16.80
2022-10-19T03:59:20.258Z,16.80
2022-10-19T04:01:52.037Z,16.80
2022-10-19T04:04:25.154Z,16.80
2022-10-19T04:06:56.909Z,16.80
2022-10-19T04:09:28.723Z,16.80
2022-10-19T04:12:00.525Z,16.80
2022-10-19T04:14:39.238Z,16.80
2022-10-19T04:17:17.609Z,16.80
2022-10-19T04:19:50.745Z,16.80
2022-10-19T04:22:22.592Z,16.80
2022-10-19T04:24:54.466Z,16.80
2022-10-19T04:27:26.260Z,16.70
2022-10-19T04:29:58.028Z,16.70
2022-10-19T04:32:29.807Z,16.70
2022-10-19T04:35:03.319Z,16.70
2022-10-19T04:37:35.453Z,16.70
2022-10-19T04:40:14.189Z,16.60
2022-10-19T04:42:46.812Z,16.70
2022-10-19T04:45:18.719Z,16.60
2022-10-19T04:47:50.510Z,16.60
2022-10-19T04:50:23.889Z,16.60
2022-10-19T04:52:55.564Z,16.60
2022-10-19T04:55:27.365Z,16.60
2022-10-19T04:57:59.223Z,16.60
2022-10-19T05:00:31.033Z,16.60
2022-10-19T05:03:02.823Z,16.60
2022-10-19T05:05:36.159Z,16.60
2022-10-19T05:08:07.834Z,16.60
2022-10-19T05:10:40.532Z,16.60
2022-10-19T05:13:14.925Z,16.60
2022-10-19T05:15:55.881Z,16.60
2022-10-19T05:18:28.640Z,16.60
2022-10-19T05:21:03.811Z,16.60
2022-10-19T05:23:36.044Z,16.60
2022-10-19T05:26:09.678Z,16.60
2022-10-19T05:28:41.688Z,16.60
2022-10-19T05:31:15.605Z,16.60
2022-10-19T05:33:47.753Z,16.60
2022-10-19T05:36:25.328Z,16.60
2022-10-19T05:38:57.751Z,16.60
2022-10-19T05:41:29.536Z,16.60
2022-10-19T05:44:02.753Z,16.60
2022-10-19T05:46:34.640Z,16.60
2022-10-19T05:49:06.417Z,16.60
2022-10-19T05:51:40.347Z,16.60
2022-10-19T05:54:12.919Z,16.60
2022-10-19T05:56:45.623Z,16.60
2022-10-19T05:59:19.582Z,16.50
2022-10-19T06:01:51.389Z,16.50
2022-10-19T06:04:23.278Z,16.50
2022-10-19T06:06:56.396Z,16.50
2022-10-19T06:09:28.262Z,16.50
2022-10-19T06:12:00.118Z,16.50
2022-10-19T06:14:31.952Z,16.50
2022-10-19T06:17:04.368Z,16.50
2022-10-19T06:19:36.480Z,16.50
2022-10-19T06:22:09.592Z,16.60
2022-10-19T06:24:41.391Z,16.60
2022-10-19T06:27:13.230Z,16.60
2022-10-19T06:29:45.121Z,16.60
2022-10-19T06:32:16.954Z,16.60
2022-10-19T06:34:49.987Z,16.50
2022-10-19T06:37:24.039Z,16.60
2022-10-19T06:39:55.856Z,16.60
2022-10-19T06:42:27.644Z,16.50
2022-10-19T06:44:59.679Z,16.50
2022-10-19T06:47:33.244Z,16.60
2022-10-19T06:50:06.815Z,16.50
2022-10-19T06:52:40.837Z,16.50
2022-10-19T06:55:12.967Z,16.50
2022-10-19T06:57:45.259Z,16.50
2022-10-19T07:00:17.246Z,16.50
2022-10-19T07:02:49.003Z,16.50
2022-10-19T07:05:21.039Z,16.40
2022-10-19T07:07:54.440Z,16.40
2022-10-19T07:10:26.572Z,16.40
2022-10-19T07:12:58.402Z,16.40
2022-10-19T07:15:30.243Z,16.40
2022-10-19T07:18:01.989Z,16.40
2022-10-19T07:20:33.796Z,16.40
2022-10-19T07:23:07.164Z,16.40
2022-10-19T07:25:38.897Z,16.40
2022-10-19T07:28:10.658Z,16.40
2022-10-19T07:30:42.426Z,16.40
2022-10-19T07:33:14.303Z,16.40
2022-10-19T07:35:46.204Z,16.40
2022-10-19T07:38:19.318Z,16.40
2022-10-19T07:40:51.083Z,16.50
2022-10-19T07:43:22.841Z,16.40
2022-10-19T07:45:58.603Z,16.40
2022-10-19T07:48:30.414Z,16.40
2022-10-19T07:51:04.109Z,16.40
2022-10-19T07:53:37.976Z,16.40
2022-10-19T07:56:11.794Z,16.40
2022-10-19T07:58:44.382Z,16.40
2022-10-19T08:01:18.573Z,16.40
2022-10-19T08:06:44.468Z,16.50
2022-10-19T08:09:40.007Z,16.50
2022-10-19T08:12:14.621Z,16.60
2022-10-19T08:14:48.043Z,16.60
2022-10-19T08:17:19.970Z,16.60
2022-10-19T08:19:51.775Z,16.60
2022-10-19T08:22:23.564Z,16.60
2022-10-19T08:24:56.724Z,16.60
2022-10-19T08:27:29.168Z,16.60
2022-10-19T08:30:01.036Z,16.70
2022-10-19T08:32:33.160Z,16.70
2022-10-19T08:35:09.996Z,16.70
2022-10-19T08:37:45.516Z,16.80
2022-10-19T08:40:23.188Z,16.80
2022-10-19T08:43:00.278Z,16.80
2022-10-19T08:48:25.761Z,16.80
2022-10-19T08:50:59.668Z,16.90
2022-10-19T08:53:40.408Z,16.90
2022-10-19T08:56:49.303Z,16.90
2022-10-19T08:59:31.550Z,16.90
2022-10-19T09:02:13.734Z,16.90
2022-10-19T09:04:50.300Z,17.00
2022-10-19T09:07:25.900Z,17.00
2022-10-19T09:10:02.441Z,17.00
2022-10-19T09:12:45.412Z,17.10
2022-10-19T09:15:21.378Z,17.10
2022-10-19T09:17:53.255Z,17.10
2022-10-19T09:20:31.498Z,17.20
2022-10-19T09:23:08.697Z,17.20
2022-10-19T09:25:44.352Z,17.20
2022-10-19T09:28:38.791Z,17.30
2022-10-19T09:31:16.997Z,17.30
2022-10-19T09:33:55.832Z,17.30
2022-10-19T09:36:50.034Z,17.30
2022-10-19T09:39:25.684Z,17.40
2022-10-19T09:42:07.541Z,17.40
2022-10-19T09:44:40.890Z,17.40
2022-10-19T09:47:23.311Z,17.40
2022-10-19T09:50:14.926Z,17.40
2022-10-19T09:52:47.727Z,17.40
2022-10-19T09:55:35.189Z,17.40
2022-10-19T09:58:17.132Z,17.40
2022-10-19T10:00:51.986Z,17.40
2022-10-19T10:03:26.790Z,17.40
2022-10-19T10:06:02.109Z,17.50
2022-10-19T10:08:36.567Z,17.40
2022-10-19T10:11:14.476Z,17.50
2022-10-19T10:13:50.263Z,17.50
2022-10-19T10:16:29.245Z,17.50
2022-10-19T10:19:05.473Z,17.50
2022-10-19T10:21:48.541Z,17.60
2022-10-19T10:24:22.285Z,17.70
2022-10-19T10:26:56.642Z,17.70
2022-10-19T10:29:30.732Z,17.80
2022-10-19T10:32:08.874Z,17.90
2022-10-19T10:34:51.337Z,18.00
2022-10-19T10:37:30.338Z,18.10
2022-10-19T10:40:05.017Z,18.20
2022-10-19T10:42:41.484Z,18.30
2022-10-19T10:45:18.818Z,18.40
2022-10-19T10:47:52.695Z,18.50
2022-10-19T10:50:26.310Z,18.60
2022-10-19T10:53:00.247Z,18.70
2022-10-19T10:55:33.302Z,18.80
2022-10-19T10:58:15.463Z,18.90
2022-10-19T11:00:49.230Z,19.00
2022-10-19T11:03:27.115Z,19.00
2022-10-19T11:06:00.658Z,19.00
2022-10-19T11:08:38.309Z,19.00
2022-10-19T11:11:15.706Z,19.10
2022-10-19T11:13:53.319Z,19.20
2022-10-19T11:16:29.827Z,19.40
2022-10-19T11:19:12.308Z,19.60
2022-10-19T11:21:51.812Z,19.70
2022-10-19T11:24:35.400Z,19.80
2022-10-19T11:27:13.182Z,20.00
2022-10-19T11:30:01.872Z,20.10
2022-10-19T11:32:40.899Z,20.30
2022-10-19T11:35:32.275Z,20.50
2022-10-19T11:38:27.413Z,20.90
2022-10-19T11:41:19.008Z,21.40
2022-10-19T11:44:11.394Z,21.90
2022-10-19T11:46:53.794Z,22.40
2022-10-19T11:49:37.393Z,22.80
2022-10-19T11:52:17.414Z,23.30
2022-10-19T11:55:00.372Z,23.70
2022-10-19T11:57:43.568Z,24.00
2022-10-19T12:00:37.554Z,24.40
2022-10-19T12:03:39.645Z,24.70
2022-10-19T12:06:18.057Z,25.10
2022-10-19T12:09:10.604Z,25.50
2022-10-19T12:11:55.857Z,25.70
2022-10-19T12:14:31.975Z,25.50
2022-10-19T12:17:08.628Z,25.50
2022-10-19T12:19:45.974Z,25.70
2022-10-19T12:22:23.687Z,25.80
2022-10-19T12:25:00.491Z,25.80
2022-10-19T12:27:36.284Z,25.80
2022-10-19T12:30:13.390Z,25.80
2022-10-19T12:33:08.415Z,26.10
2022-10-19T12:35:58.293Z,26.50
2022-10-19T12:38:43.919Z,26.80
2022-10-19T12:41:26.828Z,27.10
2022-10-19T12:44:14.466Z,27.40
2022-10-19T12:46:51.680Z,27.60
2022-10-19T12:49:38.357Z,27.70
2022-10-19T12:52:13.632Z,27.80
2022-10-19T12:54:45.836Z,28.00
2022-10-19T12:57:28.490Z,28.20
2022-10-19T13:00:03.715Z,28.30
2022-10-19T13:02:39.349Z,28.40
2022-10-19T13:05:20.767Z,28.60
2022-10-19T13:07:52.703Z,28.80
2022-10-19T13:10:27.191Z,29.00
2022-10-19T13:13:00.817Z,29.20
2022-10-19T13:15:56.708Z,29.40
2022-10-19T13:19:07.312Z,29.60
2022-10-19T13:22:04.417Z,29.80
2022-10-19T13:36:22.390Z,29.60
2022-10-19T14:01:23.219Z,27.80
2022-10-19T14:05:08.040Z,27.80
2022-10-19T14:09:08.880Z,28.00
2022-10-19T14:11:41.963Z,28.20
2022-10-19T14:14:14.727Z,28.50
2022-10-19T14:16:49.144Z,28.50
2022-10-19T14:19:27.396Z,28.40
2022-10-19T14:22:01.158Z,28.40
2022-10-19T14:24:35.976Z,28.30
2022-10-19T14:27:08.072Z,28.10
2022-10-19T14:29:45.071Z,27.90
2022-10-19T14:32:18.988Z,27.80
2022-10-19T14:34:51.351Z,27.70
2022-10-19T14:37:25.714Z,27.60
2022-10-19T14:40:01.527Z,27.50
2022-10-19T14:42:42.008Z,27.30
2022-10-19T14:45:17.166Z,27.00
2022-10-19T14:47:54.548Z,26.80
2022-10-19T14:50:32.622Z,26.50
2022-10-19T14:53:24.619Z,26.10
2022-10-19T14:56:01.686Z,25.80
2022-10-19T14:58:39.909Z,25.50
2022-10-19T15:01:12.329Z,25.10
2022-10-19T15:03:45.833Z,24.80
2022-10-19T15:06:21.428Z,24.60
2022-10-19T15:08:55.794Z,24.30
2022-10-19T15:11:30.801Z,24.10
2022-10-19T15:14:09.037Z,23.90
2022-10-19T15:16:44.699Z,23.70
2022-10-19T15:19:19.253Z,23.60
2022-10-19T15:22:06.797Z,23.30
2022-10-19T15:24:40.264Z,23.10
2022-10-19T15:27:19.686Z,22.90
2022-10-19T15:29:56.071Z,22.70
2022-10-19T15:32:35.229Z,22.50
2022-10-19T15:35:12.086Z,22.40
2022-10-19T15:37:45.276Z,22.30
2022-10-19T15:40:22.817Z,22.20
2022-10-19T15:42:56.011Z,22.20
2022-10-19T15:45:29.238Z,22.00
2022-10-19T15:48:23.807Z,21.90
2022-10-19T15:50:56.890Z,21.80
2022-10-19T15:53:28.671Z,21.70
2022-10-19T15:56:00.628Z,21.60
2022-10-19T15:58:33.792Z,21.50
2022-10-19T16:01:11.786Z,21.40
2022-10-19T16:03:43.558Z,21.20
2022-10-19T16:06:16.340Z,21.10
2022-10-19T16:08:48.439Z,21.00
2022-10-19T16:11:21.799Z,20.90
2022-10-19T16:13:54.741Z,20.70
2022-10-19T16:16:29.026Z,20.60
2022-10-19T16:19:01.005Z,20.50
2022-10-19T16:21:35.741Z,20.30
2022-10-19T16:24:07.554Z,20.20
2022-10-19T16:26:39.716Z,20.00
2022-10-19T16:29:12.875Z,19.90
2022-10-19T16:31:44.705Z,19.80
2022-10-19T16:34:16.504Z,19.70
2022-10-19T16:36:48.535Z,19.50
2022-10-19T16:39:20.297Z,19.40
2022-10-19T16:41:52.236Z,19.30
2022-10-19T16:44:25.375Z,19.20
2022-10-19T16:46:57.544Z,19.10
2022-10-19T16:49:29.574Z,19.00
2022-10-19T16:52:01.730Z,18.90
2022-10-19T16:54:33.554Z,18.90
2022-10-19T16:57:09.592Z,18.80
2022-10-19T16:59:43.319Z,18.70
2022-10-19T17:02:15.251Z,18.70
2022-10-19T17:04:47.099Z,18.60
2022-10-19T17:07:19.618Z,18.50
2022-10-19T17:09:54.643Z,18.40
2022-10-19T17:12:26.774Z,18.30
2022-10-19T17:15:29.865Z,18.20
2022-10-19T17:17:51.665Z,18.10
2022-10-19T17:20:23.515Z,18.00
2022-10-19T17:22:55.308Z,17.90
2022-10-19T17:25:27.127Z,17.90
2022-10-19T17:27:58.914Z,17.80
2022-10-19T17:30:32.093Z,17.70
2022-10-19T17:33:04.083Z,17.60
2022-10-19T17:35:35.867Z,17.60
2022-10-19T17:38:07.636Z,17.50
2022-10-19T17:40:39.427Z,17.40
2022-10-19T17:43:11.349Z,17.30
2022-10-19T17:45:45.540Z,17.30
2022-10-19T17:48:17.391Z,17.30
2022-10-19T17:50:56.740Z,17.10
2022-10-19T17:53:29.531Z,17.10
2022-10-19T17:56:03.837Z,17.00
2022-10-19T17:58:39.044Z,16.90
2022-10-19T18:01:14.115Z,16.90
2022-10-19T18:03:46.286Z,16.80
2022-10-19T18:06:20.590Z,16.80
2022-10-19T18:08:54.818Z,16.80
2022-10-19T18:11:28.331Z,16.70
2022-10-19T18:14:00.764Z,16.70
2022-10-19T18:16:35.960Z,16.70
2022-10-19T18:19:08.909Z,16.60
2022-10-19T18:21:43.668Z,16.60
2022-10-19T18:24:21.443Z,16.60
2022-10-19T18:26:53.326Z,16.50
2022-10-19T18:29:26.441Z,16.50
2022-10-19T18:32:01.396Z,16.50
2022-10-19T18:34:33.320Z,16.50
2022-10-19T18:37:05.550Z,16.50
2022-10-19T18:39:37.474Z,16.40
2022-10-19T18:42:12.001Z,16.40
2022-10-19T18:44:44.110Z,16.40
2022-10-19T18:47:17.221Z,16.30
2022-10-19T18:49:49.113Z,16.30
2022-10-19T18:52:20.922Z,16.30
2022-10-19T18:54:52.686Z,16.20
2022-10-19T18:57:28.246Z,16.20
2022-10-19T19:00:02.699Z,16.20
2022-10-19T19:02:46.297Z,16.20
2022-10-19T19:05:19.293Z,16.10
2022-10-19T19:07:51.130Z,16.10
2022-10-19T19:10:23.337Z,16.10
2022-10-19T19:12:55.141Z,16.00
2022-10-19T19:15:27.044Z,16.00
2022-10-19T19:18:00.240Z,16.00
2022-10-19T19:20:32.018Z,16.00
2022-10-19T19:23:06.345Z,16.00
2022-10-19T19:25:39.769Z,15.90
2022-10-19T19:28:11.396Z,15.90
2022-10-19T19:30:45.173Z,15.90
2022-10-19T19:33:18.348Z,15.90
2022-10-19T19:35:51.350Z,15.80
2022-10-19T19:38:23.313Z,15.90
2022-10-19T19:40:55.136Z,16.10
2022-10-19T19:43:26.945Z,16.40
2022-10-19T19:46:04.560Z,16.70
2022-10-19T19:48:43.519Z,16.90
2022-10-19T19:51:17.553Z,17.20
2022-10-19T19:53:49.388Z,17.50
2022-10-19T19:56:21.320Z,17.70
2022-10-19T19:58:55.628Z,17.90
2022-10-19T20:01:27.508Z,18.10
2022-10-19T20:06:40.290Z,18.40
2022-10-19T20:09:12.477Z,18.60
2022-10-19T20:11:44.530Z,18.70
2022-10-19T20:14:16.491Z,18.80
2022-10-19T20:16:49.401Z,18.80
2022-10-19T20:19:22.612Z,18.90
2022-10-19T20:21:56.268Z,18.90
2022-10-19T20:24:28.063Z,18.90
2022-10-19T20:26:59.826Z,18.90
2022-10-19T20:29:31.666Z,18.90
2022-10-19T20:32:03.718Z,19.00
2022-10-19T20:34:37.352Z,19.00
2022-10-19T20:37:09.668Z,19.00
2022-10-19T20:39:43.117Z,19.10
2022-10-19T20:42:15.398Z,19.10
2022-10-19T20:44:48.170Z,19.10
2022-10-19T20:47:20.352Z,19.10
2022-10-19T20:49:58.143Z,19.10
2022-10-19T20:52:32.625Z,19.20
2022-10-19T20:55:08.218Z,19.20
2022-10-19T20:57:42.239Z,19.20
2022-10-19T21:00:17.567Z,19.10
2022-10-19T21:02:52.724Z,19.10
2022-10-19T21:05:28.509Z,19.10
2022-10-19T21:08:04.718Z,19.10
2022-10-19T21:10:39.054Z,19.00
2022-10-19T21:13:13.246Z,19.00
2022-10-19T21:15:50.629Z,18.90
2022-10-19T21:18:24.393Z,18.90
2022-10-19T21:21:00.440Z,18.90
2022-10-19T21:23:35.434Z,18.90
2022-10-19T21:26:10.553Z,18.90
2022-10-19T21:28:47.209Z,18.90
2022-10-19T21:31:19.929Z,18.90
2022-10-19T21:33:52.200Z,18.90
2022-10-19T21:36:27.306Z,18.90
2022-10-19T21:39:09.387Z,18.90
2022-10-19T21:41:41.207Z,18.70
2022-10-19T21:44:14.693Z,18.40
2022-10-19T21:46:47.921Z,18.10
2022-10-19T21:49:19.782Z,17.80
2022-10-19T21:51:54.085Z,17.50
2022-10-19T21:54:26.127Z,17.20
2022-10-19T21:57:00.272Z,17.00
2022-10-19T21:59:32.049Z,16.80
2022-10-19T22:02:03.961Z,16.50
2022-10-19T22:04:35.873Z,16.40
2022-10-19T22:07:09.004Z,16.10
2022-10-19T22:09:40.835Z,16.00
2022-10-19T22:14:49.365Z,15.70
2022-10-19T22:17:21.172Z,15.60
2022-10-19T22:19:52.999Z,15.40
2022-10-19T22:22:26.103Z,15.30
2022-10-19T22:24:57.893Z,15.20
2022-10-19T22:27:29.727Z,15.20
2022-10-19T22:30:01.582Z,15.10
2022-10-19T22:32:33.588Z,15.00
2022-10-19T22:35:06.257Z,14.90
2022-10-19T22:37:39.376Z,14.80
2022-10-19T22:40:11.919Z,14.80
2022-10-19T22:42:43.634Z,14.70
2022-10-19T22:45:15.621Z,14.70
2022-10-19T22:47:47.362Z,14.60
2022-10-19T22:50:19.106Z,14.60
2022-10-19T22:52:52.174Z,14.50
2022-10-19T22:55:24.093Z,14.50
2022-10-19T22:57:55.895Z,14.50
2022-10-19T23:00:27.739Z,14.40
2022-10-19T23:02:59.579Z,14.40
2022-10-19T23:05:31.400Z,14.40
2022-10-19T23:08:04.964Z,14.30
2022-10-19T23:10:36.697Z,14.30
2022-10-19T23:13:09.606Z,14.30
2022-10-19T23:15:43.926Z,14.30
2022-10-19T23:18:15.895Z,14.20
2022-10-19T23:20:54.236Z,14.20
2022-10-19T23:23:28.796Z,14.20
2022-10-19T23:26:01.928Z,14.10
2022-10-19T23:28:34.509Z,14.10
2022-10-19T23:31:07.188Z,14.10
2022-10-19T23:33:39.472Z,14.00
2022-10-19T23:36:14.282Z,14.00
2022-10-19T23:38:48.823Z,14.00
2022-10-19T23:41:22.134Z,14.00
2022-10-19T23:43:53.994Z,14.00
2022-10-19T23:46:25.876Z,13.90
2022-10-19T23:48:57.623Z,13.90
2022-10-19T23:51:29.447Z,13.90
2022-10-19T23:54:02.539Z,13.80
2022-10-19T23:56:34.481Z,13.80
2022-10-19T23:59:09.533Z,13.80
